Terminal Aerodrome Forecast
Issued by NWS

Home | Current Version | Previous Version | Text Only | Print | Product List | Glossary On
Versions: 1 2 3 4 5 6 7 8 9 10 11 12 13 14 15 16 17 18 19 20 21 22 23
000
FTUS43 KDLH 271742
TAFHIB
TAF
KHIB 271742Z 2718/2818 27005KT P6SM BKN150
     FM272100 23005KT P6SM SCT250
     FM280300 VRB04KT P6SM VCSH SCT100 BKN250
      TEMPO 2804/2807 5SM -TSRA BKN050CB OVC080
     FM280800 31005KT 3SM BR VCSH BKN060 OVC120
     FM281300 04006KT P6SM SCT150=

USA.gov is the U.S. government's official web portal to all federal, state and local government web resources and services.